Time;durP1;ratioP1;P1;durP2;ratioP2;P2;SDS_P1;SDS_P2;PMS_P1;PMS_P2;Temp;Humidity;BMP_temperature;BMP_pressure;BME280_temperature;BME280_humidity;BME280_pressure;Samples;Min_cycle;Max_cycle;Signal;HPM_P1;HPM_P2
2023/07/04 04:02:49;;;;;;;1.90;1.00;;;18.70;81.40;;;;;;4953732;29;20469;-74
2023/07/04 04:05:16;;;;;;;1.80;1.00;;;18.80;81.40;;;;;;4955216;29;20446;-74
2023/07/04 04:07:42;;;;;;;2.00;1.13;;;19.00;80.70;;;;;;4955444;29;20443;-75
2023/07/04 04:10:10;;;;;;;2.83;1.17;;;18.90;80.60;;;;;;4955172;29;20498;-74
2023/07/04 04:15:11;;;;;;;3.17;1.30;;;19.10;80.60;;;;;;4992989;28;20473;-75
2023/07/04 04:17:38;;;;;;;2.00;1.17;;;19.20;79.80;;;;;;4993399;28;20448;-75
2023/07/04 04:20:10;;;;;;;1.90;1.00;;;19.10;80.30;;;;;;4993720;28;20453;-75
2023/07/04 04:22:39;;;;;;;2.00;1.20;;;19.20;80.10;;;;;;4993909;28;20433;-75
2023/07/04 04:25:07;;;;;;;2.60;1.23;;;19.20;80.30;;;;;;5013316;28;20451;-75
2023/07/04 04:27:35;;;;;;;1.60;0.83;;;19.30;79.90;;;;;;5013273;28;20455;-75
2023/07/04 04:30:05;;;;;;;2.40;1.20;;;19.40;79.80;;;;;;5016603;28;20527;-75
2023/07/04 04:32:32;;;;;;;2.67;1.10;;;19.50;79.20;;;;;;5017065;28;20488;-76
2023/07/04 04:34:59;;;;;;;1.90;1.13;;;19.60;79.10;;;;;;5017043;28;20467;-75
2023/07/04 04:37:27;;;;;;;2.00;0.90;;;19.60;79.10;;;;;;5017068;28;20459;-75
2023/07/04 04:39:53;;;;;;;1.80;1.03;;;19.60;79.00;;;;;;5017017;28;20456;-75
2023/07/04 04:42:23;;;;;;;1.90;1.10;;;19.30;79.90;;;;;;5016959;28;20503;-75
2023/07/04 04:44:53;;;;;;;1.90;1.10;;;19.30;80.20;;;;;;5016874;28;20467;-75
2023/07/04 04:47:22;;;;;;;2.10;1.20;;;19.20;80.50;;;;;;5016909;28;20433;-75
2023/07/04 04:49:48;;;;;;;2.00;1.20;;;19.40;80.40;;;;;;5016853;28;20451;-75
2023/07/04 04:52:15;;;;;;;2.00;1.00;;;19.20;80.40;;;;;;5016396;28;21055;-75
2023/07/04 04:54:44;;;;;;;1.87;1.20;;;19.10;80.90;;;;;;5016692;28;20873;-75
2023/07/04 04:57:11;;;;;;;2.30;1.20;;;19.10;81.10;;;;;;5016666;28;20452;-74
2023/07/04 04:59:37;;;;;;;2.77;1.20;;;18.90;81.60;;;;;;5016623;28;20456;-75
2023/07/04 05:02:04;;;;;;;1.90;1.13;;;18.80;82.10;;;;;;5016584;28;20440;-75
2023/07/04 05:04:31;;;;;;;2.50;1.30;;;18.50;83.00;;;;;;5016490;28;20468;-74
2023/07/04 05:06:58;;;;;;;3.17;1.33;;;18.60;82.90;;;;;;5016547;28;20970;-75
2023/07/04 05:09:24;;;;;;;2.20;1.20;;;18.70;82.60;;;;;;5016617;28;20821;-75
2023/07/04 05:11:52;;;;;;;2.17;1.10;;;18.70;82.80;;;;;;5016374;28;20484;-76
2023/07/04 05:14:19;;;;;;;1.97;1.20;;;18.70;82.50;;;;;;5015907;28;20480;-74
2023/07/04 05:16:46;;;;;;;2.67;1.30;;;19.00;82.40;;;;;;5016584;28;20448;-75
2023/07/04 05:19:12;;;;;;;2.00;1.23;;;19.20;81.50;;;;;;5016226;28;20455;-74
2023/07/04 05:21:39;;;;;;;3.87;1.20;;;19.30;81.40;;;;;;5016212;28;20440;-75
2023/07/04 05:24:06;;;;;;;2.53;1.37;;;19.30;80.90;;;;;;5016113;28;20506;-76
2023/07/04 05:26:33;;;;;;;3.40;1.30;;;19.50;80.70;;;;;;5015996;28;20451;-75
2023/07/04 05:29:03;;;;;;;2.00;1.00;;;19.80;79.80;;;;;;5016323;28;20452;-75
2023/07/04 05:31:32;;;;;;;2.57;1.20;;;19.90;79.20;;;;;;5015967;28;20523;-75
2023/07/04 05:33:59;;;;;;;2.60;1.40;;;20.10;78.60;;;;;;5015827;28;20552;-75
2023/07/04 05:36:28;;;;;;;2.40;1.30;;;20.00;78.60;;;;;;5015828;28;20452;-75
2023/07/04 05:38:59;;;;;;;6.77;1.30;;;19.90;78.70;;;;;;5015495;28;20954;-77
2023/07/04 05:41:27;;;;;;;2.10;1.13;;;19.90;79.20;;;;;;5014852;28;20440;-75
2023/07/04 05:43:55;;;;;;;2.10;1.33;;;19.80;79.60;;;;;;5015642;28;20522;-76
2023/07/04 05:46:23;;;;;;;2.87;1.60;;;19.80;79.00;;;;;;5015614;28;20456;-75
2023/07/04 05:48:52;;;;;;;1.80;1.00;;;19.80;79.30;;;;;;5015421;28;20436;-76
2023/07/04 05:51:21;;;;;;;2.27;1.33;;;19.80;78.80;;;;;;5015239;28;20808;-75
2023/07/04 05:53:49;;;;;;;2.30;1.23;;;19.90;79.20;;;;;;5015654;28;20476;-76
2023/07/04 05:56:18;;;;;;;2.63;1.40;;;20.20;77.80;;;;;;5015523;28;20452;-76
2023/07/04 05:58:46;;;;;;;2.00;1.20;;;20.20;76.80;;;;;;5015663;28;20448;-75
2023/07/04 06:01:16;;;;;;;2.67;1.30;;;20.10;77.60;;;;;;5015147;28;20953;-76
2023/07/04 06:03:44;;;;;;;2.97;1.50;;;20.20;77.50;;;;;;5015416;28;20464;-75
2023/07/04 06:06:17;;;;;;;2.67;1.30;;;20.10;77.10;;;;;;5015315;28;20861;-76
2023/07/04 06:08:44;;;;;;;4.47;1.50;;;20.20;77.70;;;;;;5015413;28;20436;-76
2023/07/04 06:11:11;;;;;;;2.40;1.27;;;20.20;77.90;;;;;;5015209;28;20547;-76
2023/07/04 06:13:38;;;;;;;2.30;1.13;;;20.50;77.60;;;;;;5014738;28;20848;-76
2023/07/04 06:16:05;;;;;;;2.70;1.50;;;20.60;75.60;;;;;;5015162;28;20448;-76
2023/07/04 06:18:32;;;;;;;2.60;1.40;;;20.80;76.20;;;;;;5015070;28;20449;-76
2023/07/04 06:21:07;;;;;;;2.00;1.13;;;20.90;75.40;;;;;;5015049;28;20448;-76
2023/07/04 06:23:34;;;;;;;2.80;1.27;;;21.00;74.40;;;;;;5014987;28;20468;-75
2023/07/04 06:26:01;;;;;;;1.90;1.33;;;21.10;74.10;;;;;;5015067;28;20861;-75
2023/07/04 06:28:27;;;;;;;3.90;1.50;;;21.40;73.40;;;;;;5014931;28;20451;-74
2023/07/04 06:30:54;;;;;;;2.50;1.20;;;21.50;70.60;;;;;;5014911;28;20483;-75
2023/07/04 06:33:21;;;;;;;2.60;1.43;;;21.80;71.70;;;;;;5014824;28;20468;-75
2023/07/04 06:35:47;;;;;;;5.03;1.40;;;22.30;69.40;;;;;;5015543;28;20445;-75
2023/07/04 06:38:15;;;;;;;2.23;1.23;;;22.70;68.00;;;;;;5014758;28;20455;-76
2023/07/04 06:40:42;;;;;;;2.67;1.60;;;22.60;68.50;;;;;;5014704;28;20444;-75
2023/07/04 06:43:09;;;;;;;2.77;1.53;;;22.50;67.80;;;;;;5014203;28;20864;-76
2023/07/04 06:45:36;;;;;;;2.00;1.20;;;22.70;67.70;;;;;;5014242;28;20849;-75
2023/07/04 06:48:03;;;;;;;2.10;1.30;;;22.60;67.70;;;;;;5014587;28;20863;-75
2023/07/04 06:50:29;;;;;;;2.13;1.30;;;22.30;68.60;;;;;;5014186;28;20949;-74
2023/07/04 06:52:56;;;;;;;2.00;1.30;;;22.10;69.00;;;;;;5014045;28;20541;-75
2023/07/04 06:55:24;;;;;;;2.03;1.27;;;22.20;69.80;;;;;;5014648;28;20555;-74
2023/07/04 06:57:51;;;;;;;2.10;1.30;;;22.10;69.10;;;;;;5014523;28;20544;-74
2023/07/04 07:00:18;;;;;;;1.90;1.10;;;22.00;69.80;;;;;;5014326;28;20527;-74
2023/07/04 07:02:50;;;;;;;2.10;1.40;;;22.00;68.90;;;;;;5014371;28;20448;-75
2023/07/04 07:05:16;;;;;;;2.40;1.40;;;22.00;69.70;;;;;;5014350;28;20479;-74
2023/07/04 07:07:43;;;;;;;2.30;1.40;;;22.10;68.60;;;;;;5014250;28;20764;-75
2023/07/04 07:10:10;;;;;;;2.30;1.20;;;22.10;69.50;;;;;;5014152;28;20448;-75
2023/07/04 07:12:38;;;;;;;2.83;1.50;;;22.20;68.20;;;;;;5014067;28;20492;-75
2023/07/04 07:15:06;;;;;;;2.70;1.57;;;22.00;69.50;;;;;;5013714;28;20961;-75
2023/07/04 07:17:33;;;;;;;2.33;1.20;;;21.90;69.20;;;;;;5013964;28;20452;-74
2023/07/04 07:20:00;;;;;;;2.03;1.50;;;21.90;69.80;;;;;;5013748;28;20507;-75
2023/07/04 07:22:26;;;;;;;2.57;1.60;;;22.00;68.70;;;;;;5013975;28;20453;-74
2023/07/04 07:24:53;;;;;;;2.70;1.37;;;22.00;68.20;;;;;;5013947;28;20472;-74
2023/07/04 07:27:20;;;;;;;2.60;1.40;;;21.90;69.40;;;;;;5013967;28;20546;-74
2023/07/04 07:29:49;;;;;;;2.00;1.40;;;21.90;69.30;;;;;;5013700;28;20448;-74
2023/07/04 07:32:16;;;;;;;3.20;1.53;;;22.00;67.70;;;;;;5013537;28;21059;-74
2023/07/04 07:34:42;;;;;;;2.47;1.50;;;22.10;67.80;;;;;;5013528;28;21051;-75
2023/07/04 07:37:11;;;;;;;2.70;1.67;;;22.20;67.30;;;;;;5013577;28;20960;-74
2023/07/04 07:39:38;;;;;;;2.07;1.47;;;22.20;66.80;;;;;;5013937;28;20452;-75
2023/07/04 07:42:05;;;;;;;2.80;1.90;;;22.20;66.50;;;;;;5013834;28;20452;-75
2023/07/04 07:44:32;;;;;;;2.73;1.83;;;22.30;65.90;;;;;;5013797;28;20567;-74
2023/07/04 07:47:00;;;;;;;2.93;1.87;;;22.10;65.50;;;;;;5013756;28;20456;-75
2023/07/04 07:49:27;;;;;;;2.60;1.50;;;22.00;65.70;;;;;;5013722;28;20474;-75
2023/07/04 07:51:53;;;;;;;2.93;1.57;;;22.10;65.80;;;;;;5013333;28;20503;-75
2023/07/04 07:54:20;;;;;;;3.27;1.60;;;22.10;65.90;;;;;;5013611;28;20464;-74
2023/07/04 07:56:48;;;;;;;3.13;1.53;;;22.00;65.80;;;;;;5013375;28;20815;-74
2023/07/04 07:59:15;;;;;;;2.70;2.00;;;22.00;64.80;;;;;;5013695;28;20448;-75
2023/07/04 08:01:41;;;;;;;3.00;1.43;;;22.00;66.20;;;;;;5013676;28;20499;-75
2023/07/04 08:04:10;;;;;;;4.13;1.60;;;22.30;64.50;;;;;;5012648;28;20976;-75
2023/07/04 08:06:38;;;;;;;3.00;1.73;;;22.60;63.70;;;;;;5013699;28;20799;-75
2023/07/04 08:09:07;;;;;;;4.10;1.50;;;22.70;64.50;;;;;;5013542;28;20456;-75
2023/07/04 08:11:34;;;;;;;2.80;1.70;;;22.90;64.10;;;;;;5013053;28;20961;-74
2023/07/04 08:14:01;;;;;;;3.20;1.80;;;23.10;62.70;;;;;;5013294;28;20487;-75
2023/07/04 08:16:30;;;;;;;3.17;1.87;;;23.00;62.80;;;;;;5013463;28;20448;-74
2023/07/04 08:18:58;;;;;;;2.37;1.40;;;22.90;63.70;;;;;;5013260;28;20453;-75
2023/07/04 08:21:27;;;;;;;3.37;2.00;;;23.00;64.40;;;;;;5013376;28;20854;-75
2023/07/04 08:23:54;;;;;;;5.30;1.90;;;23.30;62.50;;;;;;5013293;28;20485;-75
2023/07/04 08:26:23;;;;;;;2.67;1.50;;;23.60;61.60;;;;;;5013168;28;20937;-74
2023/07/04 08:28:50;;;;;;;2.83;1.70;;;23.90;60.80;;;;;;5013322;28;20454;-72
2023/07/04 08:31:18;;;;;;;2.83;1.90;;;24.30;59.80;;;;;;5013880;28;20476;-72
2023/07/04 08:33:45;;;;;;;3.10;2.07;;;24.50;58.80;;;;;;5014130;28;20494;-72
2023/07/04 08:36:14;;;;;;;3.97;1.87;;;24.60;57.60;;;;;;5013266;28;20867;-72
2023/07/04 08:38:43;;;;;;;3.83;2.23;;;24.30;57.90;;;;;;5013378;28;20460;-71
2023/07/04 08:41:26;;;;;;;2.60;1.67;;;24.10;58.50;;;;;;5013481;28;20460;-72
2023/07/04 08:43:58;;;;;;;5.10;1.93;;;24.00;58.60;;;;;;5013385;28;20526;-72
2023/07/04 08:46:34;;;;;;;3.30;2.00;;;23.90;59.60;;;;;;5013371;28;20432;-71
2023/07/04 08:49:01;;;;;;;3.00;1.87;;;24.00;59.50;;;;;;5013414;28;20455;-72
2023/07/04 08:51:35;;;;;;;3.00;1.60;;;24.00;60.40;;;;;;5013215;28;20498;-71
2023/07/04 08:54:09;;;;;;;3.30;1.83;;;24.20;59.40;;;;;;5013714;28;20484;-72
2023/07/04 08:56:38;;;;;;;2.40;1.87;;;24.10;61.60;;;;;;5013145;28;20437;-71
2023/07/04 08:59:14;;;;;;;2.57;1.60;;;24.20;62.40;;;;;;5013309;28;20458;-72
2023/07/04 09:01:58;;;;;;;2.47;1.60;;;24.30;61.40;;;;;;5013095;28;20432;-72
2023/07/04 09:04:35;;;;;;;3.30;2.07;;;24.50;61.00;;;;;;5013223;28;20547;-71
2023/07/04 09:07:12;;;;;;;3.70;1.77;;;24.00;60.80;;;;;;5013339;28;20436;-72
2023/07/04 09:09:49;;;;;;;4.33;1.83;;;23.90;61.00;;;;;;5013080;28;20805;-72
2023/07/04 09:12:16;;;;;;;2.80;2.20;;;23.90;62.60;;;;;;5012767;28;20851;-72
2023/07/04 09:14:49;;;;;;;2.93;2.17;;;23.80;61.40;;;;;;5012840;28;20476;-72
2023/07/04 09:17:24;;;;;;;2.67;1.77;;;23.60;61.00;;;;;;5016159;28;20479;-72
2023/07/04 09:19:52;;;;;;;3.77;2.50;;;23.80;60.20;;;;;;5016582;28;20424;-72
2023/07/04 09:22:20;;;;;;;4.10;2.40;;;23.70;59.30;;;;;;5015960;28;20865;-71
2023/07/04 09:24:49;;;;;;;3.80;2.10;;;23.60;60.10;;;;;;5016460;28;20548;-72
2023/07/04 09:27:17;;;;;;;2.43;1.73;;;23.70;61.30;;;;;;5016185;28;20463;-72
2023/07/04 09:29:44;;;;;;;3.10;2.30;;;23.80;60.10;;;;;;5016260;28;20448;-73
2023/07/04 09:32:12;;;;;;;2.93;1.90;;;24.10;60.10;;;;;;5016067;28;20444;-72
2023/07/04 09:34:46;;;;;;;2.53;1.90;;;24.30;59.90;;;;;;5015966;28;20475;-72
2023/07/04 09:37:15;;;;;;;2.60;1.70;;;24.50;59.20;;;;;;5016050;28;20448;-73
2023/07/04 09:39:47;;;;;;;3.70;2.10;;;24.50;59.20;;;;;;5015643;28;20949;-71
2023/07/04 09:42:17;;;;;;;2.77;1.90;;;24.20;58.50;;;;;;5015895;28;20448;-72
2023/07/04 09:44:44;;;;;;;2.63;2.10;;;24.30;59.70;;;;;;5015815;28;20518;-71
2023/07/04 09:47:21;;;;;;;2.57;1.80;;;24.50;59.30;;;;;;5015773;28;20448;-72
2023/07/04 09:49:48;;;;;;;2.67;2.17;;;24.60;58.60;;;;;;5015807;28;20436;-73
2023/07/04 09:52:23;;;;;;;2.90;1.90;;;24.80;58.30;;;;;;5015641;28;20476;-73
2023/07/04 09:55:08;;;;;;;2.60;2.30;;;25.00;57.80;;;;;;5015593;28;20475;-72
2023/07/04 09:57:37;;;;;;;3.53;2.50;;;24.90;57.30;;;;;;5015623;28;20455;-73
2023/07/04 10:00:21;;;;;;;2.57;2.20;;;24.60;58.10;;;;;;5015568;28;20452;-73
2023/07/04 10:02:52;;;;;;;2.50;1.97;;;24.50;58.00;;;;;;5015460;28;20429;-73
2023/07/04 10:05:27;;;;;;;2.50;1.87;;;24.60;57.80;;;;;;5015458;28;20495;-72
2023/07/04 10:08:07;;;;;;;2.73;2.30;;;24.50;58.50;;;;;;5015378;28;20452;-74
2023/07/04 10:10:37;;;;;;;3.30;2.17;;;24.50;57.10;;;;;;5015381;28;20436;-73
2023/07/04 10:13:07;;;;;;;2.80;2.07;;;24.50;57.00;;;;;;5014807;28;21012;-73
2023/07/04 10:15:40;;;;;;;4.43;2.40;;;24.60;56.90;;;;;;5015639;28;20984;-72
2023/07/04 10:18:07;;;;;;;3.00;2.13;;;24.70;56.60;;;;;;5015144;28;20502;-73
2023/07/04 10:20:39;;;;;;;5.27;2.00;;;24.90;57.10;;;;;;5015175;28;20863;-72
2023/07/04 10:23:06;;;;;;;2.97;2.20;;;25.00;58.50;;;;;;5014973;28;20492;-73
2023/07/04 10:25:35;;;;;;;2.90;2.10;;;25.10;58.20;;;;;;5015208;28;20444;-73
2023/07/04 10:28:13;;;;;;;3.20;2.63;;;25.20;56.90;;;;;;5014614;28;20448;-73
2023/07/04 10:30:43;;;;;;;3.80;2.00;;;25.40;56.60;;;;;;5014991;28;20436;-72
2023/07/04 10:33:16;;;;;;;2.63;2.20;;;25.10;56.20;;;;;;5014477;28;21073;-74
2023/07/04 10:35:47;;;;;;;3.47;2.10;;;25.40;55.30;;;;;;5014917;28;20428;-73
2023/07/04 10:38:25;;;;;;;2.43;2.10;;;25.60;52.10;;;;;;5014887;28;20460;-72
2023/07/04 10:40:51;;;;;;;3.20;1.97;;;25.70;53.10;;;;;;5014822;28;20451;-73
2023/07/04 10:43:28;;;;;;;3.10;1.80;;;26.10;53.40;;;;;;5015076;28;20464;-72
2023/07/04 10:45:57;;;;;;;2.40;1.90;;;26.20;52.30;;;;;;5014926;28;20852;-73
2023/07/04 10:48:25;;;;;;;3.83;1.90;;;25.70;52.70;;;;;;5014626;28;20457;-72
2023/07/04 10:50:57;;;;;;;3.47;1.83;;;25.30;53.60;;;;;;5014633;28;20445;-72
2023/07/04 10:53:24;;;;;;;3.37;2.30;;;25.40;53.30;;;;;;5014447;28;20572;-71
2023/07/04 10:55:56;;;;;;;2.50;1.63;;;25.50;53.10;;;;;;5014841;28;20440;-73
2023/07/04 10:58:28;;;;;;;3.10;1.57;;;25.50;52.40;;;;;;5014516;28;20519;-72
2023/07/04 11:01:01;;;;;;;3.40;2.30;;;25.40;52.10;;;;;;5014198;28;20786;-72
2023/07/04 11:03:37;;;;;;;2.60;1.73;;;25.30;53.10;;;;;;5014374;28;20889;-72
2023/07/04 11:06:09;;;;;;;2.70;2.30;;;25.30;52.80;;;;;;5014367;28;20491;-73
2023/07/04 11:08:38;;;;;;;2.93;2.20;;;25.40;52.20;;;;;;5014362;28;20437;-72
2023/07/04 11:11:09;;;;;;;2.47;1.83;;;25.60;52.60;;;;;;5014294;28;20460;-73
2023/07/04 11:13:42;;;;;;;2.40;1.77;;;25.70;51.30;;;;;;5014648;28;20523;-72
2023/07/04 11:16:09;;;;;;;2.33;1.80;;;25.80;52.80;;;;;;5014273;28;20491;-73
2023/07/04 11:18:39;;;;;;;2.70;1.70;;;25.70;52.20;;;;;;5014163;28;20448;-73
2023/07/04 11:21:10;;;;;;;3.23;2.30;;;25.40;53.80;;;;;;5014169;28;20495;-72
2023/07/04 11:23:46;;;;;;;2.77;2.00;;;25.20;53.00;;;;;;5014027;28;20471;-72
2023/07/04 11:26:13;;;;;;;3.10;1.83;;;25.10;53.40;;;;;;5014325;28;20440;-72
2023/07/04 11:28:47;;;;;;;3.17;2.00;;;25.30;52.90;;;;;;5014244;28;20452;-73
2023/07/04 11:31:25;;;;;;;2.60;1.67;;;25.60;52.30;;;;;;5014063;28;20428;-73
2023/07/04 11:34:10;;;;;;;2.90;1.90;;;25.90;51.60;;;;;;5013821;28;20487;-73
2023/07/04 11:36:42;;;;;;;3.47;2.30;;;26.00;50.20;;;;;;5013953;28;20448;-72
2023/07/04 11:39:23;;;;;;;4.00;2.13;;;26.00;50.80;;;;;;5013142;28;20436;-73
2023/07/04 11:41:50;;;;;;;3.87;2.17;;;26.00;51.60;;;;;;5013536;28;20463;-72
2023/07/04 11:44:27;;;;;;;3.33;2.20;;;26.00;49.70;;;;;;5013666;28;20464;-73
2023/07/04 11:47:00;;;;;;;2.77;1.73;;;26.10;50.90;;;;;;5013713;28;20436;-73
2023/07/04 11:49:30;;;;;;;2.83;2.30;;;26.00;50.50;;;;;;5013669;28;20437;-72
2023/07/04 11:52:05;;;;;;;2.50;1.83;;;26.30;51.40;;;;;;5013701;28;20454;-73
2023/07/04 11:54:33;;;;;;;3.03;1.70;;;26.60;49.10;;;;;;5013756;28;20496;-72
2023/07/04 11:57:00;;;;;;;3.80;2.27;;;26.90;50.60;;;;;;5013544;28;20510;-73
2023/07/04 11:59:44;;;;;;;2.20;1.83;;;27.20;48.70;;;;;;5013265;28;20948;-73
2023/07/04 12:02:15;;;;;;;2.30;1.70;;;27.40;47.00;;;;;;5011287;28;20456;-74
2023/07/04 12:04:48;;;;;;;2.40;1.37;;;27.20;45.80;;;;;;5013714;28;20480;-72
2023/07/04 12:07:20;;;;;;;2.43;1.40;;;27.20;46.80;;;;;;5013574;28;20444;-73
2023/07/04 12:09:52;;;;;;;2.60;1.60;;;27.20;48.10;;;;;;5013525;28;20457;-73
2023/07/04 12:12:23;;;;;;;2.43;1.50;;;26.90;48.00;;;;;;5013833;28;20432;-72
2023/07/04 12:14:59;;;;;;;2.07;1.40;;;26.80;49.10;;;;;;5013228;28;20499;-73
2023/07/04 12:17:26;;;;;;;2.60;1.77;;;26.90;48.70;;;;;;5013433;28;20441;-72
2023/07/04 12:20:01;;;;;;;2.20;1.57;;;26.90;48.50;;;;;;5013398;28;20448;-73
2023/07/04 12:22:28;;;;;;;2.40;1.50;;;27.00;48.10;;;;;;5014021;28;20432;-72
2023/07/04 12:24:54;;;;;;;5.43;1.63;;;27.00;47.60;;;;;;5013355;28;20516;-73
2023/07/04 12:27:27;;;;;;;2.20;1.50;;;27.00;48.20;;;;;;5013348;28;20523;-72
2023/07/04 12:29:55;;;;;;;4.20;1.53;;;27.00;48.40;;;;;;5013312;28;20440;-73
2023/07/04 12:32:23;;;;;;;2.40;1.43;;;27.20;48.00;;;;;;5013230;28;20448;-74
2023/07/04 12:34:53;;;;;;;2.50;1.50;;;27.30;48.10;;;;;;5014132;28;20542;-73
2023/07/04 12:37:23;;;;;;;1.90;1.00;;;27.20;46.70;;;;;;5013502;28;20460;-72
2023/07/04 12:39:51;;;;;;;2.97;1.40;;;27.20;47.70;;;;;;5013250;28;20455;-73
2023/07/04 12:42:25;;;;;;;2.23;1.60;;;27.30;48.00;;;;;;5012854;28;20807;-72
2023/07/04 12:44:52;;;;;;;3.60;1.80;;;27.30;45.60;;;;;;5013177;28;20464;-73
2023/07/04 12:47:22;;;;;;;2.63;1.40;;;27.10;46.30;;;;;;5013164;28;20542;-72
2023/07/04 12:49:51;;;;;;;2.20;1.50;;;27.20;46.70;;;;;;5014317;28;20429;-73
2023/07/04 12:52:20;;;;;;;2.03;1.37;;;27.10;46.90;;;;;;5016850;28;20447;-72
2023/07/04 12:54:48;;;;;;;4.60;1.70;;;27.10;46.50;;;;;;5016721;28;20483;-73
2023/07/04 12:57:17;;;;;;;2.20;1.70;;;27.00;47.00;;;;;;5016788;28;20579;-73
2023/07/04 12:59:48;;;;;;;2.73;1.57;;;26.90;47.50;;;;;;5016794;28;20456;-73
2023/07/04 13:02:22;;;;;;;1.90;1.20;;;27.00;47.20;;;;;;5016405;28;20844;-73
2023/07/04 13:04:49;;;;;;;2.30;1.57;;;27.00;46.70;;;;;;5016347;28;21031;-72
2023/07/04 13:07:21;;;;;;;2.33;1.17;;;27.40;47.70;;;;;;5016685;28;20479;-73
2023/07/04 13:09:52;;;;;;;2.10;1.30;;;27.80;46.90;;;;;;5016339;28;20805;-73
2023/07/04 13:12:25;;;;;;;4.20;1.37;;;28.10;48.10;;;;;;5016467;28;20441;-71
2023/07/04 13:15:03;;;;;;;2.00;1.33;;;28.30;44.40;;;;;;5016227;28;20496;-73
2023/07/04 13:17:31;;;;;;;2.60;1.77;;;28.30;45.00;;;;;;5016398;28;20437;-72
2023/07/04 13:20:09;;;;;;;2.30;1.60;;;28.20;45.30;;;;;;5016406;28;20527;-73
2023/07/04 13:22:36;;;;;;;2.03;1.10;;;28.20;45.90;;;;;;5016256;28;20432;-74
2023/07/04 13:25:22;;;;;;;3.37;1.90;;;28.20;45.70;;;;;;5016298;28;20447;-73
2023/07/04 13:27:49;;;;;;;3.00;1.70;;;28.10;45.50;;;;;;5015981;28;20437;-72
2023/07/04 13:30:27;;;;;;;2.20;1.60;;;28.00;45.30;;;;;;5016188;28;20452;-73
2023/07/04 13:32:56;;;;;;;2.13;1.63;;;28.10;45.60;;;;;;5016088;28;20455;-74
2023/07/04 13:35:27;;;;;;;2.20;1.60;;;28.30;45.80;;;;;;5015969;28;20484;-72
2023/07/04 13:37:54;;;;;;;2.23;1.30;;;28.10;46.10;;;;;;5016329;28;20440;-73
2023/07/04 13:40:20;;;;;;;2.23;1.60;;;28.20;45.80;;;;;;5015703;28;20953;-73
2023/07/04 13:43:13;;;;;;;2.70;1.40;;;28.30;45.60;;;;;;5015688;28;20962;-74
2023/07/04 13:45:40;;;;;;;2.40;1.70;;;28.50;46.00;;;;;;4997410;28;20452;-73
2023/07/04 13:48:08;;;;;;;3.00;1.60;;;28.60;44.70;;;;;;5015901;28;20448;-73
2023/07/04 13:50:35;;;;;;;2.40;1.27;;;28.60;44.30;;;;;;5015924;28;20530;-73
2023/07/04 13:53:06;;;;;;;2.20;1.30;;;28.70;45.20;;;;;;5015454;28;20825;-73
2023/07/04 13:55:34;;;;;;;2.53;1.50;;;28.60;44.30;;;;;;5015754;28;20542;-73
2023/07/04 13:58:01;;;;;;;3.03;1.70;;;28.50;44.00;;;;;;5015391;28;20948;-73
2023/07/04 14:00:28;;;;;;;2.47;1.20;;;28.50;45.20;;;;;;5015662;28;20445;-72
2023/07/04 14:02:55;;;;;;;2.27;1.23;;;28.50;44.80;;;;;;5014766;28;20457;-73
2023/07/04 14:05:23;;;;;;;3.80;1.40;;;28.70;44.80;;;;;;5015427;28;20527;-72
2023/07/04 14:07:51;;;;;;;2.27;1.17;;;28.80;44.30;;;;;;5015441;28;20448;-73
2023/07/04 14:10:18;;;;;;;2.40;1.60;;;28.20;44.10;;;;;;5015463;28;20490;-72
2023/07/04 14:12:45;;;;;;;2.00;1.30;;;27.90;45.30;;;;;;5015286;28;20499;-74
2023/07/04 14:15:12;;;;;;;1.80;1.27;;;28.00;46.60;;;;;;5015264;28;20484;-73
2023/07/04 14:17:39;;;;;;;2.33;1.47;;;28.30;45.50;;;;;;5015033;28;20868;-72
2023/07/04 14:20:07;;;;;;;1.90;1.27;;;28.40;44.90;;;;;;5015807;28;20471;-73
2023/07/04 14:22:35;;;;;;;2.33;1.40;;;28.50;44.30;;;;;;5014862;28;20852;-74
2023/07/04 14:25:02;;;;;;;2.77;1.53;;;28.70;44.80;;;;;;5014942;28;20938;-74
2023/07/04 14:27:28;;;;;;;2.30;1.67;;;28.70;46.40;;;;;;5015253;28;20490;-73
2023/07/04 14:29:55;;;;;;;1.90;1.30;;;28.90;44.70;;;;;;5015049;28;20451;-73
2023/07/04 14:32:22;;;;;;;2.47;1.37;;;29.00;43.30;;;;;;5015239;28;20498;-73
2023/07/04 14:34:49;;;;;;;2.00;1.20;;;29.20;43.40;;;;;;5014887;28;20495;-73
2023/07/04 14:37:16;;;;;;;2.20;1.60;;;29.10;44.30;;;;;;5014549;28;20945;-73
2023/07/04 14:39:44;;;;;;;3.50;1.83;;;29.20;44.40;;;;;;5014858;28;20452;-73
2023/07/04 14:42:13;;;;;;;2.20;1.23;;;29.40;45.00;;;;;;5014923;28;20457;-73
2023/07/04 14:44:40;;;;;;;2.67;1.80;;;29.70;44.00;;;;;;5014519;28;20460;-73
2023/07/04 14:47:07;;;;;;;2.80;1.47;;;29.80;42.80;;;;;;5014847;28;20499;-72
2023/07/04 14:49:35;;;;;;;2.53;1.57;;;29.70;42.30;;;;;;5014433;28;20941;-72
2023/07/04 14:52:02;;;;;;;2.17;1.30;;;29.80;42.60;;;;;;5014331;28;20874;-73
2023/07/04 14:54:28;;;;;;;2.20;1.13;;;29.90;42.40;;;;;;5014436;28;20492;-72
2023/07/04 14:56:57;;;;;;;2.20;1.20;;;30.00;42.80;;;;;;5014569;28;20457;-73
2023/07/04 14:59:23;;;;;;;2.10;1.30;;;30.10;42.10;;;;;;5014471;28;20532;-72
2023/07/04 15:01:50;;;;;;;2.23;1.43;;;30.10;42.20;;;;;;5014536;28;20444;-73
2023/07/04 15:04:16;;;;;;;2.40;1.43;;;30.10;42.30;;;;;;5014355;28;20495;-73
2023/07/04 15:06:43;;;;;;;2.13;1.43;;;30.20;42.30;;;;;;5014414;28;20448;-72
2023/07/04 15:09:10;;;;;;;1.97;1.23;;;30.30;42.40;;;;;;5013979;28;20448;-73
2023/07/04 15:11:37;;;;;;;2.40;1.60;;;30.30;42.20;;;;;;5014295;28;20449;-72
2023/07/04 15:14:05;;;;;;;2.00;1.27;;;30.30;42.30;;;;;;5013778;28;21012;-73
2023/07/04 15:16:31;;;;;;;2.70;1.50;;;30.00;42.40;;;;;;5014206;28;20460;-73
2023/07/04 15:18:58;;;;;;;2.20;1.50;;;30.10;42.70;;;;;;5014218;28;20499;-73
2023/07/04 15:21:25;;;;;;;2.23;1.20;;;30.00;42.70;;;;;;5013805;28;20483;-72
2023/07/04 15:23:51;;;;;;;1.90;1.40;;;29.80;42.60;;;;;;5014016;28;20832;-73
2023/07/04 15:26:19;;;;;;;2.10;1.30;;;29.70;42.30;;;;;;5013725;28;20854;-72
2023/07/04 15:28:47;;;;;;;2.20;1.40;;;29.50;42.70;;;;;;5014036;28;20550;-73
2023/07/04 15:31:15;;;;;;;2.00;1.33;;;29.40;43.20;;;;;;5013962;28;20819;-73
2023/07/04 15:33:42;;;;;;;2.67;1.60;;;28.90;44.30;;;;;;5013845;28;20469;-73
2023/07/04 15:36:09;;;;;;;2.80;1.40;;;28.90;43.40;;;;;;5013726;28;20484;-73
2023/07/04 15:38:36;;;;;;;2.67;1.30;;;29.00;43.50;;;;;;5013869;28;20819;-73
2023/07/04 15:41:04;;;;;;;2.83;1.33;;;29.10;43.80;;;;;;5013832;28;20822;-73
2023/07/04 15:43:34;;;;;;;1.97;1.40;;;29.30;42.80;;;;;;5014533;28;20468;-73
2023/07/04 15:46:02;;;;;;;1.83;1.10;;;29.40;42.90;;;;;;5014003;28;20441;-73
2023/07/04 15:48:31;;;;;;;1.97;1.20;;;29.30;43.10;;;;;;5013681;28;20555;-73
2023/07/04 15:50:59;;;;;;;1.90;1.03;;;29.20;42.40;;;;;;5013672;28;20455;-73
2023/07/04 15:53:26;;;;;;;2.23;1.30;;;29.00;43.40;;;;;;5014117;28;20487;-72
2023/07/04 15:55:59;;;;;;;2.20;1.17;;;29.20;43.40;;;;;;5013209;28;20515;-73
2023/07/04 15:58:26;;;;;;;2.23;1.40;;;29.10;43.10;;;;;;5013607;28;20490;-72
2023/07/04 16:00:55;;;;;;;3.27;1.50;;;29.10;43.50;;;;;;5013563;28;20467;-74
2023/07/04 16:03:22;;;;;;;2.13;1.50;;;29.30;43.00;;;;;;5013479;28;20551;-72
2023/07/04 16:05:50;;;;;;;2.53;1.17;;;29.30;44.30;;;;;;5013547;28;20455;-73
2023/07/04 16:08:17;;;;;;;2.03;1.27;;;29.30;44.80;;;;;;5013182;28;20934;-74
2023/07/04 16:10:43;;;;;;;2.20;1.30;;;29.30;43.70;;;;;;5013729;28;20448;-73
2023/07/04 16:13:11;;;;;;;2.10;1.27;;;29.30;44.50;;;;;;5013230;28;20546;-74
2023/07/04 16:15:38;;;;;;;3.30;2.17;;;29.50;44.20;;;;;;5014497;28;20812;-72
2023/07/04 16:18:04;;;;;;;2.67;1.33;;;29.60;43.30;;;;;;5013451;28;20452;-72
2023/07/04 16:20:33;;;;;;;2.27;1.27;;;29.70;44.00;;;;;;5013403;28;20452;-72
2023/07/04 16:23:02;;;;;;;3.90;1.77;;;29.60;43.50;;;;;;5013921;28;20472;-74
2023/07/04 16:25:29;;;;;;;2.40;1.40;;;29.70;43.20;;;;;;5015576;28;20514;-72
2023/07/04 16:27:55;;;;;;;2.70;1.43;;;29.50;43.00;;;;;;5017584;28;20507;-73
2023/07/04 16:30:22;;;;;;;2.70;1.40;;;29.40;43.50;;;;;;5017280;28;20460;-72
2023/07/04 16:32:49;;;;;;;2.87;1.50;;;29.30;43.60;;;;;;5017201;28;20503;-72
2023/07/04 16:35:15;;;;;;;2.07;1.20;;;29.30;44.10;;;;;;5017145;28;20480;-73
2023/07/04 16:37:42;;;;;;;2.97;1.90;;;29.00;43.90;;;;;;5016817;28;20946;-74
2023/07/04 16:40:11;;;;;;;1.90;1.33;;;28.80;44.40;;;;;;5017111;28;20444;-72
2023/07/04 16:42:38;;;;;;;1.87;1.20;;;28.60;44.60;;;;;;5017011;28;20452;-74
2023/07/04 16:45:08;;;;;;;3.03;1.60;;;28.60;45.10;;;;;;5016724;28;20825;-72
2023/07/04 16:47:35;;;;;;;2.00;1.50;;;28.60;44.60;;;;;;5017317;28;20432;-73
2023/07/04 16:50:02;;;;;;;3.00;1.60;;;28.60;45.60;;;;;;5017049;28;20522;-73
2023/07/04 16:52:29;;;;;;;2.30;1.50;;;28.60;46.00;;;;;;5016935;28;20448;-73
2023/07/04 16:54:56;;;;;;;2.57;1.50;;;28.80;45.40;;;;;;5016729;28;20893;-73
2023/07/04 16:57:24;;;;;;;2.33;1.33;;;28.80;45.60;;;;;;5016951;28;20487;-72
2023/07/04 16:59:50;;;;;;;2.60;1.37;;;28.80;46.20;;;;;;5016804;28;20456;-73
2023/07/04 17:02:17;;;;;;;3.10;1.20;;;28.70;46.10;;;;;;5016780;28;20452;-74